aviador You're here:

KMLS Decoded Metar

MILES CITY in MT, USA
Report Time2018-02-22 11:53:00
UTC Time2018-02-22 12:23:33
Flight Rules vfr VFR
Wind300° at 04 kt
W.Decomp.*RWY 30: 3.9 kt HW 0.8 kt LCW
RWY 22: 1.5 kt HW 3.7 kt RCW
W.Rank300° ranks 4
Current wind is below 300° avg. (10.1)
Visibility9999 m
Phenomena:N/A
Clouds:N/A
Expected CloudBase > 1,200 ft AGL from Temp-Dew spread
CeilingNone
Temp-29°C (ISA -39)
Dew Point-32°C (75% RH)
AAT-34.3°C
QNH1021 hPa
Density Alt-2,671 ft
Elevation2,628 ft
Report Wrong Elevation
Raw Report
KMLS 221153Z AUTO 30004KT 10SM CLR M29/M32 A3016 RMK AO2 SLP296
T12941317 11261 21294 55002=

Extra information for KMLS:More info

Metar Taf Metar & Taf Last 4 Metars F.Rules Stats Wind Profile Meteogram Temp Stats Airport Information Weather charts Add Link Nearby VenuesMetar ALERT Operation Metar Decoded Social comments

AIRNAV info for KMLS